Time;durP1;ratioP1;P1;durP2;ratioP2;P2;SDS_P1;SDS_P2;PMS_P1;PMS_P2;Temp;Humidity;BMP_temperature;BMP_pressure;BME280_temperature;BME280_humidity;BME280_pressure;Samples;Min_cycle;Max_cycle;Signal;HPM_P1;HPM_P2
2021/06/20 00:00:08;;;;;;;;;;;;;;;19.83;64.19;100460.13;5116019;28;756;-63
2021/06/20 00:02:33;;;;;;;;;;;;;;;19.83;63.41;100457.38;5115815;28;953;-57
2021/06/20 00:04:59;;;;;;;;;;;;;;;19.60;63.31;100459.94;5116316;28;828;-42
2021/06/20 00:07:24;;;;;;;;;;;;;;;19.33;63.05;100452.38;5116272;28;1976;-42
2021/06/20 00:09:50;;;;;;;;;;;;;;;19.46;64.44;100453.56;5115925;28;779;-43
2021/06/20 00:12:15;;;;;;;;;;;;;;;19.58;64.81;100444.81;5107450;28;1193;-44
2021/06/20 00:14:40;;;;;;;;;;;;;;;19.68;65.13;100452.91;5095832;28;847;-42
2021/06/20 00:17:06;;;;;;;;;;;;;;;19.78;64.94;100441.72;5103313;28;1669;-43
2021/06/20 00:19:32;;;;;;;;;;;;;;;19.82;64.76;100448.31;5119743;28;751;-42
2021/06/20 00:21:57;;;;;;;;;;;;;;;19.98;63.59;100445.25;5119672;28;859;-61
2021/06/20 00:24:23;;;;;;;;;;;;;;;19.80;63.95;100441.44;5119314;28;744;-63
2021/06/20 00:26:48;;;;;;;;;;;;;;;19.55;62.46;100442.69;5119735;28;767;-45
2021/06/20 00:29:13;;;;;;;;;;;;;;;19.43;62.64;100441.22;5119599;28;1909;-42
2021/06/20 00:31:39;;;;;;;;;;;;;;;19.59;64.08;100443.72;5118804;28;970;-42
2021/06/20 00:34:04;;;;;;;;;;;;;;;19.44;65.06;100442.81;5119335;28;803;-42
2021/06/20 00:36:30;;;;;;;;;;;;;;;19.54;64.46;100443.78;5119492;28;783;-42
2021/06/20 00:38:55;;;;;;;;;;;;;;;19.64;63.54;100446.34;5119253;28;755;-60
2021/06/20 00:41:20;;;;;;;;;;;;;;;19.76;63.90;100449.47;5119225;28;747;-43
2021/06/20 00:43:46;;;;;;;;;;;;;;;19.74;64.23;100448.13;5119324;28;744;-63
2021/06/20 00:46:11;;;;;;;;;;;;;;;19.64;64.56;100443.59;5118765;28;974;-49
2021/06/20 00:48:37;;;;;;;;;;;;;;;19.72;63.44;100445.66;5118871;28;1986;-59
2021/06/20 00:51:02;;;;;;;;;;;;;;;19.74;63.09;100443.44;5119167;28;875;-42
2021/06/20 00:53:28;;;;;;;;;;;;;;;19.94;63.14;100439.50;5119220;28;811;-42
2021/06/20 00:55:53;;;;;;;;;;;;;;;19.87;63.57;100444.63;5118964;28;842;-65
2021/06/20 00:58:20;;;;;;;;;;;;;;;19.73;61.92;100446.50;5119114;28;775;-43
2021/06/20 01:00:46;;;;;;;;;;;;;;;19.30;62.15;100441.97;5118727;28;838;-43
2021/06/20 01:03:11;;;;;;;;;;;;;;;19.87;63.83;100446.56;5118576;28;1035;-42
2021/06/20 01:05:37;;;;;;;;;;;;;;;20.24;63.78;100442.00;5119129;28;763;-43
2021/06/20 01:08:02;;;;;;;;;;;;;;;20.46;64.26;100446.78;5118912;28;1917;-42
2021/06/20 01:10:29;;;;;;;;;;;;;;;20.20;64.80;100446.47;5118664;28;794;-42
2021/06/20 01:12:55;;;;;;;;;;;;;;;20.16;65.07;100447.09;5118740;28;1194;-63
2021/06/20 01:15:20;;;;;;;;;;;;;;;20.09;61.55;100435.66;5118627;28;747;-43
2021/06/20 01:17:46;;;;;;;;;;;;;;;20.00;57.97;100432.75;5118025;28;1037;-42
2021/06/20 01:20:12;;;;;;;;;;;;;;;19.79;57.06;100440.59;5118917;28;731;-42
2021/06/20 01:22:38;;;;;;;;;;;;;;;20.02;56.61;100435.25;5100220;28;1253;-43
2021/06/20 01:25:10;;;;;;;;;;;;;;;20.09;55.44;100432.06;5118500;28;728;-63
2021/06/20 01:27:40;;;;;;;;;;;;;;;19.86;55.60;100431.94;5118560;28;1905;-41
2021/06/20 01:30:07;;;;;;;;;;;;;;;19.96;58.75;100437.28;5118433;28;733;-45
2021/06/20 01:32:32;;;;;;;;;;;;;;;20.08;60.92;100435.97;5117935;28;962;-43
2021/06/20 01:34:58;;;;;;;;;;;;;;;20.32;62.49;100435.75;5118464;28;739;-52
2021/06/20 01:37:23;;;;;;;;;;;;;;;20.28;63.56;100437.50;5099188;28;1301;-43
2021/06/20 01:39:49;;;;;;;;;;;;;;;20.47;63.71;100429.91;5118185;28;847;-43
2021/06/20 01:42:16;;;;;;;;;;;;;;;20.48;63.98;100437.09;5118309;28;743;-43
2021/06/20 01:44:51;;;;;;;;;;;;;;;20.18;63.05;100427.47;5117726;28;776;-64
2021/06/20 01:47:16;;;;;;;;;;;;;;;19.89;62.62;100430.50;5117715;28;965;-42
2021/06/20 01:49:42;;;;;;;;;;;;;;;19.88;60.42;100429.72;5117987;28;1914;-63
2021/06/20 01:52:07;;;;;;;;;;;;;;;19.85;58.47;100429.47;5117865;28;798;-58
2021/06/20 01:54:36;;;;;;;;;;;;;;;19.74;57.29;100418.63;5118130;28;799;-42
2021/06/20 01:57:03;;;;;;;;;;;;;;;19.85;60.39;100423.97;5117799;28;819;-43
2021/06/20 01:59:28;;;;;;;;;;;;;;;20.03;62.30;100428.56;5117363;28;760;-43
2021/06/20 02:01:54;;;;;;;;;;;;;;;20.30;63.41;100429.72;5117737;28;985;-42
2021/06/20 02:04:19;;;;;;;;;;;;;;;20.45;64.63;100429.38;5118007;28;811;-42
2021/06/20 02:06:44;;;;;;;;;;;;;;;20.24;64.89;100436.47;5117449;28;802;-63
2021/06/20 02:09:10;;;;;;;;;;;;;;;20.58;64.02;100430.53;5117766;28;1925;-43
2021/06/20 02:11:35;;;;;;;;;;;;;;;20.62;61.34;100428.78;5114763;28;1114;-45
2021/06/20 02:14:01;;;;;;;;;;;;;;;20.25;56.96;100424.31;5097148;28;756;-42
2021/06/20 02:16:26;;;;;;;;;;;;;;;20.29;53.43;100430.84;5098452;28;1035;-42
2021/06/20 02:18:52;;;;;;;;;;;;;;;20.17;55.85;100429.44;5117772;28;763;-42
2021/06/20 02:21:17;;;;;;;;;;;;;;;20.22;56.14;100428.50;5117180;28;798;-63
2021/06/20 02:23:43;;;;;;;;;;;;;;;20.25;55.42;100427.06;5117575;28;755;-42
2021/06/20 02:26:08;;;;;;;;;;;;;;;20.32;55.45;100424.72;5117046;28;791;-46
2021/06/20 02:28:33;;;;;;;;;;;;;;;20.32;57.38;100438.50;5117396;28;1909;-64
2021/06/20 02:30:59;;;;;;;;;;;;;;;20.16;59.31;100435.22;5116966;28;743;-43
2021/06/20 02:33:24;;;;;;;;;;;;;;;20.21;58.68;100440.66;5116698;28;966;-43
2021/06/20 02:35:50;;;;;;;;;;;;;;;20.15;58.86;100441.91;5117168;28;747;-43
2021/06/20 02:38:15;;;;;;;;;;;;;;;20.07;60.64;100445.34;5116976;28;858;-43
2021/06/20 02:40:41;;;;;;;;;;;;;;;20.11;61.02;100446.38;5116403;28;818;-43
2021/06/20 02:43:06;;;;;;;;;;;;;;;20.03;61.20;100449.84;5117539;28;763;-43
2021/06/20 02:45:32;;;;;;;;;;;;;;;20.21;61.10;100451.69;5117098;28;799;-43
2021/06/20 02:47:57;;;;;;;;;;;;;;;20.26;61.86;100457.13;5116389;28;1979;-43
2021/06/20 02:50:22;;;;;;;;;;;;;;;19.77;62.98;100459.38;5117099;28;779;-42
2021/06/20 02:52:48;;;;;;;;;;;;;;;19.92;62.75;100451.97;5116988;28;804;-46
2021/06/20 02:55:13;;;;;;;;;;;;;;;19.96;62.03;100461.28;5117183;28;744;-42
2021/06/20 02:57:39;;;;;;;;;;;;;;;20.00;63.17;100456.78;5116832;28;834;-42
2021/06/20 03:00:05;;;;;;;;;;;;;;;20.17;62.72;100451.50;5116305;28;843;-50
2021/06/20 03:02:30;;;;;;;;;;;;;;;20.18;62.67;100455.88;5094838;28;1325;-43
2021/06/20 03:04:56;;;;;;;;;;;;;;;20.21;62.55;100464.69;5096502;28;819;-44
2021/06/20 03:07:21;;;;;;;;;;;;;;;20.29;62.11;100463.97;5096155;28;851;-46
2021/06/20 03:09:47;;;;;;;;;;;;;;;20.39;61.84;100454.69;5096793;28;1910;-63
2021/06/20 03:12:12;;;;;;;;;;;;;;;20.29;63.05;100458.47;5096361;28;1197;-44
2021/06/20 03:14:38;;;;;;;;;;;;;;;20.38;62.17;100462.13;5095905;28;755;-60
2021/06/20 03:17:03;;;;;;;;;;;;;;;20.42;61.63;100459.59;5103188;28;1043;-70
2021/06/20 03:19:29;;;;;;;;;;;;;;;20.28;63.61;100451.28;5116726;28;862;-44
2021/06/20 03:22:00;;;;;;;;;;;;;;;20.54;62.55;100450.75;5115967;28;760;-42
2021/06/20 03:24:26;;;;;;;;;;;;;;;20.46;61.47;100449.56;5116443;28;1075;-72
2021/06/20 03:26:52;;;;;;;;;;;;;;;20.38;59.97;100448.31;5115244;28;1143;-71
2021/06/20 03:29:17;;;;;;;;;;;;;;;20.39;60.30;100449.16;5102856;28;1990;-46
2021/06/20 03:31:42;;;;;;;;;;;;;;;20.36;62.09;100445.06;5100864;28;1005;-42
2021/06/20 03:34:08;;;;;;;;;;;;;;;20.49;62.57;100448.94;5116470;28;772;-46
2021/06/20 03:36:34;;;;;;;;;;;;;;;20.49;62.45;100449.75;5116102;28;826;-73
2021/06/20 03:38:59;;;;;;;;;;;;;;;20.42;62.65;100454.88;5116506;28;879;-43
2021/06/20 03:41:25;;;;;;;;;;;;;;;20.38;62.77;100451.09;5116336;28;879;-42
2021/06/20 03:43:50;;;;;;;;;;;;;;;20.62;62.28;100453.63;5116078;28;831;-71
2021/06/20 03:46:18;;;;;;;;;;;;;;;20.74;61.71;100450.38;5097993;28;974;-44
2021/06/20 03:48:43;;;;;;;;;;;;;;;20.89;61.45;100454.75;5114599;28;1978;-70
2021/06/20 03:51:09;;;;;;;;;;;;;;;20.60;60.81;100447.59;5114553;28;1584;-44
2021/06/20 03:53:34;;;;;;;;;;;;;;;20.50;62.90;100445.88;5118901;28;858;-67
2021/06/20 03:56:00;;;;;;;;;;;;;;;20.78;62.71;100447.81;5120346;28;787;-42
2021/06/20 03:58:25;;;;;;;;;;;;;;;20.84;61.80;100452.09;5119729;28;854;-42
2021/06/20 04:00:51;;;;;;;;;;;;;;;20.84;60.55;100441.03;5120185;28;748;-68
2021/06/20 04:03:16;;;;;;;;;;;;;;;20.96;59.04;100440.50;5115176;28;946;-46
2021/06/20 04:05:42;;;;;;;;;;;;;;;20.88;58.62;100439.28;5099341;28;772;-43
2021/06/20 04:08:07;;;;;;;;;;;;;;;20.60;59.11;100441.25;5099833;28;1980;-42
2021/06/20 04:10:33;;;;;;;;;;;;;;;20.70;58.97;100440.25;5099433;28;747;-42
2021/06/20 04:12:59;;;;;;;;;;;;;;;20.78;58.91;100440.31;5114133;28;1100;-45
2021/06/20 04:15:25;;;;;;;;;;;;;;;20.70;61.17;100443.81;5120403;28;795;-41
2021/06/20 04:17:53;;;;;;;;;;;;;;;20.88;61.02;100441.25;5117247;28;1066;-64
2021/06/20 04:20:19;;;;;;;;;;;;;;;21.01;59.77;100437.59;5119554;28;819;-45
2021/06/20 04:22:44;;;;;;;;;;;;;;;20.83;57.74;100440.22;5120266;28;759;-42
2021/06/20 04:25:13;;;;;;;;;;;;;;;20.86;55.27;100444.31;5119638;28;791;-43
2021/06/20 04:27:39;;;;;;;;;;;;;;;20.66;55.46;100438.09;5119262;28;1909;-44
2021/06/20 04:30:06;;;;;;;;;;;;;;;20.72;58.38;100437.97;5119680;28;834;-70
2021/06/20 04:32:31;;;;;;;;;;;;;;;20.77;59.92;100437.88;5119268;28;950;-43
2021/06/20 04:34:57;;;;;;;;;;;;;;;20.84;59.76;100433.53;5119383;28;842;-44
2021/06/20 04:37:22;;;;;;;;;;;;;;;20.97;58.03;100436.59;5119608;28;751;-56
2021/06/20 04:39:48;;;;;;;;;;;;;;;20.65;57.39;100428.16;5119142;28;752;-64
2021/06/20 04:42:15;;;;;;;;;;;;;;;20.64;56.76;100429.28;5119742;28;814;-43
2021/06/20 04:44:44;;;;;;;;;;;;;;;20.63;58.15;100432.34;5119361;28;771;-45
2021/06/20 04:47:10;;;;;;;;;;;;;;;20.81;59.96;100433.38;5118850;28;1017;-43
2021/06/20 04:49:36;;;;;;;;;;;;;;;20.91;60.37;100424.03;5119256;28;1984;-42
2021/06/20 04:52:04;;;;;;;;;;;;;;;20.85;60.00;100426.91;5119274;28;756;-69
2021/06/20 04:54:29;;;;;;;;;;;;;;;20.67;59.24;100428.69;5119134;28;752;-71
2021/06/20 04:56:56;;;;;;;;;;;;;;;20.59;59.52;100425.81;5101060;28;1095;-43
2021/06/20 04:59:22;;;;;;;;;;;;;;;20.81;60.81;100433.38;5118970;28;795;-43
2021/06/20 05:01:47;;;;;;;;;;;;;;;20.90;61.66;100441.72;5118519;28;982;-48
2021/06/20 05:04:13;;;;;;;;;;;;;;;21.00;61.10;100447.06;5116603;28;1562;-65
2021/06/20 05:06:39;;;;;;;;;;;;;;;20.93;60.13;100450.22;5118989;28;751;-45
2021/06/20 05:09:04;;;;;;;;;;;;;;;20.92;58.87;100450.56;5118648;28;1918;-65
2021/06/20 05:11:30;;;;;;;;;;;;;;;20.81;58.89;100453.53;5100128;28;1447;-69
2021/06/20 05:13:56;;;;;;;;;;;;;;;20.67;59.79;100456.31;5119017;28;738;-41
2021/06/20 05:16:22;;;;;;;;;;;;;;;20.76;59.56;100458.34;5118126;28;1107;-63
2021/06/20 05:18:47;;;;;;;;;;;;;;;20.69;59.88;100456.00;5118707;28;755;-41
2021/06/20 05:21:13;;;;;;;;;;;;;;;20.59;60.26;100459.75;5118097;28;744;-62
2021/06/20 05:23:38;;;;;;;;;;;;;;;20.48;60.82;100456.41;5118800;28;855;-51
2021/06/20 05:26:03;;;;;;;;;;;;;;;20.51;60.79;100453.03;5118668;28;767;-67
2021/06/20 05:28:29;;;;;;;;;;;;;;;20.49;60.91;100460.78;5118211;28;1914;-43
2021/06/20 05:30:54;;;;;;;;;;;;;;;20.69;60.20;100453.22;5118678;28;779;-45
2021/06/20 05:33:20;;;;;;;;;;;;;;;20.62;60.61;100461.09;5118568;28;1001;-68
2021/06/20 05:35:46;;;;;;;;;;;;;;;20.68;60.35;100455.19;5109055;28;791;-66
2021/06/20 05:38:11;;;;;;;;;;;;;;;20.64;60.53;100456.09;5097938;28;743;-64
2021/06/20 05:40:37;;;;;;;;;;;;;;;20.57;60.83;100456.50;5097938;28;832;-45
2021/06/20 05:43:03;;;;;;;;;;;;;;;20.78;59.96;100456.09;5097465;28;890;-47
2021/06/20 05:45:28;;;;;;;;;;;;;;;20.65;61.13;100461.31;5079720;28;768;-48
2021/06/20 05:47:54;;;;;;;;;;;;;;;20.66;62.31;100460.19;5112493;28;1974;-43
2021/06/20 05:50:19;;;;;;;;;;;;;;;20.78;62.00;100461.63;5117296;28;826;-43
2021/06/20 05:52:44;;;;;;;;;;;;;;;20.80;60.52;100462.97;5118297;28;751;-54
2021/06/20 05:55:10;;;;;;;;;;;;;;;20.35;59.62;100462.75;5118056;28;740;-44
2021/06/20 05:57:35;;;;;;;;;;;;;;;20.40;58.12;100462.66;5117713;28;724;-64
2021/06/20 06:00:03;;;;;;;;;;;;;;;20.35;59.71;100460.00;5117633;28;778;-42
2021/06/20 06:02:38;;;;;;;;;;;;;;;20.60;61.35;100452.31;5117499;28;1017;-55
2021/06/20 06:05:04;;;;;;;;;;;;;;;20.85;61.04;100462.81;5117343;28;790;-46
2021/06/20 06:07:29;;;;;;;;;;;;;;;20.67;60.44;100456.31;5117883;28;743;-44
2021/06/20 06:09:54;;;;;;;;;;;;;;;20.63;59.38;100455.25;5117496;28;1972;-45
2021/06/20 06:12:23;;;;;;;;;;;;;;;20.54;59.05;100461.81;5089692;28;1225;-46
2021/06/20 06:14:50;;;;;;;;;;;;;;;20.68;58.10;100457.94;5096807;28;819;-47
2021/06/20 06:17:16;;;;;;;;;;;;;;;20.51;58.58;100466.03;5106087;28;1169;-65
2021/06/20 06:19:41;;;;;;;;;;;;;;;20.55;58.26;100466.22;5113397;28;879;-55
2021/06/20 06:22:06;;;;;;;;;;;;;;;20.51;58.42;100464.06;5097347;28;756;-46
2021/06/20 06:24:32;;;;;;;;;;;;;;;20.47;58.33;100465.81;5097006;28;984;-46
2021/06/20 06:26:57;;;;;;;;;;;;;;;20.52;58.30;100468.47;5096644;28;767;-47
2021/06/20 06:29:23;;;;;;;;;;;;;;;20.52;58.14;100456.59;5078432;28;1910;-57
2021/06/20 06:31:48;;;;;;;;;;;;;;;20.45;58.01;100454.25;5102247;28;966;-51
2021/06/20 06:34:14;;;;;;;;;;;;;;;20.46;58.07;100458.66;5116947;28;755;-58
2021/06/20 06:36:39;;;;;;;;;;;;;;;20.50;58.11;100451.38;5117308;28;787;-48
2021/06/20 06:39:05;;;;;;;;;;;;;;;20.60;59.21;100444.03;5117529;28;731;-47
2021/06/20 06:41:30;;;;;;;;;;;;;;;20.60;60.55;100442.06;5116530;28;1012;-46
2021/06/20 06:43:56;;;;;;;;;;;;;;;20.63;61.13;100446.16;5117553;28;815;-50
2021/06/20 06:46:21;;;;;;;;;;;;;;;20.69;60.07;100436.66;5116826;28;969;-62
2021/06/20 06:48:47;;;;;;;;;;;;;;;20.64;59.22;100447.81;5116851;28;1909;-55
2021/06/20 06:51:12;;;;;;;;;;;;;;;20.54;59.07;100445.25;5117066;28;938;-48
2021/06/20 06:53:38;;;;;;;;;;;;;;;20.49;58.59;100441.47;5116952;28;764;-55
2021/06/20 06:56:03;;;;;;;;;;;;;;;20.25;58.07;100444.44;5116591;28;783;-48
2021/06/20 06:58:29;;;;;;;;;;;;;;;20.34;59.25;100448.13;5116987;28;776;-49
2021/06/20 07:00:54;;;;;;;;;;;;;;;20.40;60.79;100446.09;5116626;28;810;-48
2021/06/20 07:03:20;;;;;;;;;;;;;;;20.54;61.55;100446.06;5115678;28;934;-46
2021/06/20 07:05:45;;;;;;;;;;;;;;;20.50;61.24;100456.09;5116878;28;894;-65
2021/06/20 07:08:11;;;;;;;;;;;;;;;20.65;59.30;100452.19;5116809;28;1972;-46
2021/06/20 07:10:36;;;;;;;;;;;;;;;20.60;58.16;100438.50;5116303;28;865;-48
2021/06/20 07:13:02;;;;;;;;;;;;;;;20.60;57.56;100438.50;5101667;28;1182;-46
2021/06/20 07:15:28;;;;;;;;;;;;;;;20.57;57.72;100428.88;5096269;28;792;-49
2021/06/20 07:17:55;;;;;;;;;;;;;;;20.45;58.00;100431.34;5110541;28;1019;-48
2021/06/20 07:20:20;;;;;;;;;;;;;;;20.37;60.20;100435.66;5116453;28;772;-65
2021/06/20 07:22:46;;;;;;;;;;;;;;;20.64;61.19;100422.94;5116550;28;755;-46
2021/06/20 07:25:13;;;;;;;;;;;;;;;20.74;61.74;100425.50;5116376;28;822;-46
2021/06/20 07:27:38;;;;;;;;;;;;;;;21.00;60.56;100428.50;5119301;28;1969;-56
2021/06/20 07:30:04;;;;;;;;;;;;;;;20.85;59.98;100421.38;5120915;28;783;-46
2021/06/20 07:32:30;;;;;;;;;;;;;;;20.65;59.19;100422.63;5120437;28;1044;-58
2021/06/20 07:34:56;;;;;;;;;;;;;;;20.56;59.44;100421.72;5120764;28;875;-46
2021/06/20 07:37:21;;;;;;;;;;;;;;;20.59;59.50;100425.81;5120713;28;747;-48
2021/06/20 07:39:47;;;;;;;;;;;;;;;20.62;59.85;100431.53;5120313;28;806;-49
2021/06/20 07:42:12;;;;;;;;;;;;;;;20.58;60.19;100425.00;5120538;28;859;-49
2021/06/20 07:44:38;;;;;;;;;;;;;;;20.51;60.59;100419.88;5120711;28;780;-56
2021/06/20 07:47:03;;;;;;;;;;;;;;;20.67;60.17;100422.31;5119952;28;1013;-47
2021/06/20 07:49:28;;;;;;;;;;;;;;;20.70;60.28;100423.69;5120240;28;1913;-50
2021/06/20 07:51:54;;;;;;;;;;;;;;;20.72;60.83;100425.00;5120497;28;831;-65
2021/06/20 07:54:19;;;;;;;;;;;;;;;20.66;61.99;100423.44;5120204;28;797;-65
2021/06/20 07:56:45;;;;;;;;;;;;;;;20.65;60.85;100425.38;5120595;28;762;-45
2021/06/20 07:59:10;;;;;;;;;;;;;;;20.38;61.73;100417.94;5120219;28;767;-46
2021/06/20 08:01:37;;;;;;;;;;;;;;;20.56;61.00;100416.19;5119750;28;970;-47
2021/06/20 08:04:02;;;;;;;;;;;;;;;20.60;60.70;100419.16;5119922;28;814;-65
2021/06/20 08:06:27;;;;;;;;;;;;;;;20.76;60.36;100417.72;5120222;28;751;-54
2021/06/20 08:08:56;;;;;;;;;;;;;;;20.71;60.34;100420.59;5120171;28;1977;-45
2021/06/20 08:11:24;;;;;;;;;;;;;;;20.76;60.46;100422.41;5118356;28;1098;-45
2021/06/20 08:13:50;;;;;;;;;;;;;;;20.78;60.75;100415.47;5099727;28;986;-45
2021/06/20 08:16:16;;;;;;;;;;;;;;;20.84;61.38;100422.50;5100126;28;1039;-65
2021/06/20 08:18:41;;;;;;;;;;;;;;;20.92;61.52;100429.25;5101198;28;1181;-65
2021/06/20 08:21:07;;;;;;;;;;;;;;;20.98;60.24;100427.19;5119894;28;831;-65
2021/06/20 08:23:32;;;;;;;;;;;;;;;20.94;58.40;100428.94;5120035;28;759;-46
2021/06/20 08:25:58;;;;;;;;;;;;;;;20.74;55.43;100431.03;5119585;28;786;-59
2021/06/20 08:28:23;;;;;;;;;;;;;;;20.67;54.38;100422.31;5120049;28;1969;-46
2021/06/20 08:30:49;;;;;;;;;;;;;;;20.67;58.25;100427.84;5119753;28;803;-47
2021/06/20 08:33:14;;;;;;;;;;;;;;;20.78;60.38;100429.28;5118511;28;1001;-65
2021/06/20 08:35:40;;;;;;;;;;;;;;;20.76;60.94;100426.03;5119942;28;867;-46
2021/06/20 08:38:05;;;;;;;;;;;;;;;20.83;59.42;100422.81;5118602;28;772;-46
2021/06/20 08:40:31;;;;;;;;;;;;;;;20.70;58.37;100429.19;5119288;28;803;-46
2021/06/20 08:42:57;;;;;;;;;;;;;;;20.64;57.08;100425.69;5119740;28;862;-65
2021/06/20 08:45:22;;;;;;;;;;;;;;;20.59;55.79;100426.59;5119913;28;804;-45
2021/06/20 08:47:48;;;;;;;;;;;;;;;20.43;55.92;100415.09;5118634;28;1917;-58
2021/06/20 08:50:13;;;;;;;;;;;;;;;20.52;56.06;100413.25;5119314;28;751;-45
2021/06/20 08:52:39;;;;;;;;;;;;;;;20.58;58.06;100418.63;5118945;28;867;-50
2021/06/20 08:55:06;;;;;;;;;;;;;;;20.58;60.02;100418.63;5118996;28;763;-45
2021/06/20 08:57:33;;;;;;;;;;;;;;;20.65;61.54;100424.56;5119269;28;811;-45
2021/06/20 08:59:58;;;;;;;;;;;;;;;20.34;62.16;100417.75;5101009;28;1102;-55
2021/06/20 09:02:27;;;;;;;;;;;;;;;20.52;61.01;100427.06;5118674;28;946;-63
2021/06/20 09:04:56;;;;;;;;;;;;;;;20.58;60.31;100421.41;5119108;28;879;-46
2021/06/20 09:07:35;;;;;;;;;;;;;;;20.65;59.61;100424.56;5119109;28;740;-46
2021/06/20 09:10:12;;;;;;;;;;;;;;;20.68;60.14;100419.28;5118565;28;1905;-55
2021/06/20 09:12:44;;;;;;;;;;;;;;;20.74;61.08;100413.63;5107037;28;1142;-59
2021/06/20 09:15:11;;;;;;;;;;;;;;;20.87;61.85;100414.72;5098566;28;740;-45
2021/06/20 09:17:36;;;;;;;;;;;;;;;20.76;62.48;100430.72;5110103;28;1071;-47
2021/06/20 09:20:03;;;;;;;;;;;;;;;20.90;60.54;100419.63;5118729;28;859;-42
2021/06/20 09:22:28;;;;;;;;;;;;;;;20.46;60.33;100422.75;5118355;28;815;-52
2021/06/20 09:25:00;;;;;;;;;;;;;;;20.58;58.86;100421.41;5118428;28;779;-44
2021/06/20 09:27:25;;;;;;;;;;;;;;;20.71;58.44;100426.13;5118866;28;733;-51
2021/06/20 09:29:51;;;;;;;;;;;;;;;20.66;59.02;100428.97;5118340;28;1985;-44
2021/06/20 09:32:16;;;;;;;;;;;;;;;20.81;58.94;100423.13;5117965;28;950;-45
2021/06/20 09:34:48;;;;;;;;;;;;;;;20.76;59.73;100426.03;5118233;28;791;-64
2021/06/20 09:37:14;;;;;;;;;;;;;;;20.93;60.22;100424.53;5118342;28;799;-44
2021/06/20 09:39:39;;;;;;;;;;;;;;;20.75;62.25;100416.09;5118083;28;771;-45
2021/06/20 09:42:06;;;;;;;;;;;;;;;20.82;62.19;100416.47;5118291;28;767;-58
2021/06/20 09:44:44;;;;;;;;;;;;;;;20.78;60.95;100418.22;5100188;28;828;-67
2021/06/20 09:47:13;;;;;;;;;;;;;;;20.79;58.64;100408.81;5105843;28;915;-44
2021/06/20 09:49:42;;;;;;;;;;;;;;;20.64;56.20;100406.38;5117769;28;1914;-46
2021/06/20 09:52:08;;;;;;;;;;;;;;;20.62;54.78;100401.16;5118440;28;835;-43
2021/06/20 09:54:44;;;;;;;;;;;;;;;20.50;58.06;100404.44;5117611;28;771;-51
2021/06/20 09:57:16;;;;;;;;;;;;;;;20.65;60.41;100408.81;5117949;28;766;-44
2021/06/20 09:59:42;;;;;;;;;;;;;;;20.63;61.23;100404.72;5118259;28;794;-44
2021/06/20 10:02:08;;;;;;;;;;;;;;;20.20;62.86;100402.31;5117273;28;950;-48
2021/06/20 10:04:34;;;;;;;;;;;;;;;20.57;61.34;100403.22;5117710;28;780;-63
2021/06/20 10:07:00;;;;;;;;;;;;;;;20.77;59.94;100400.00;5117890;28;779;-45
2021/06/20 10:09:25;;;;;;;;;;;;;;;20.56;60.17;100402.38;5117184;28;1909;-42
2021/06/20 10:11:51;;;;;;;;;;;;;;;20.65;59.47;100396.94;5117560;28;1182;-45
2021/06/20 10:14:16;;;;;;;;;;;;;;;20.72;58.85;100402.06;5117540;28;863;-45
2021/06/20 10:16:44;;;;;;;;;;;;;;;20.69;58.92;100392.44;5116615;28;1069;-62
2021/06/20 10:19:17;;;;;;;;;;;;;;;20.68;58.53;100388.88;5099389;28;1370;-45
2021/06/20 10:21:43;;;;;;;;;;;;;;;20.58;58.78;100391.84;5117993;28;784;-44
2021/06/20 10:24:18;;;;;;;;;;;;;;;20.52;58.85;100391.16;5117043;28;812;-44
2021/06/20 10:26:55;;;;;;;;;;;;;;;20.60;58.35;100386.00;5098970;28;896;-43
2021/06/20 10:29:21;;;;;;;;;;;;;;;20.63;58.20;100393.66;5117329;28;1914;-45
2021/06/20 10:31:47;;;;;;;;;;;;;;;20.63;58.15;100394.47;5116601;28;942;-63
2021/06/20 10:34:16;;;;;;;;;;;;;;;20.47;58.69;100396.78;5099084;28;814;-45
2021/06/20 10:36:45;;;;;;;;;;;;;;;20.54;58.40;100390.00;5117232;28;863;-61
2021/06/20 10:39:11;;;;;;;;;;;;;;;20.50;58.37;100387.88;5116804;28;818;-44
2021/06/20 10:41:37;;;;;;;;;;;;;;;20.47;58.45;100395.97;5117282;28;786;-44
2021/06/20 10:44:02;;;;;;;;;;;;;;;20.59;58.00;100392.66;5117000;28;724;-43
2021/06/20 10:46:28;;;;;;;;;;;;;;;20.52;58.15;100393.91;5116289;28;966;-58
2021/06/20 10:48:53;;;;;;;;;;;;;;;20.67;58.52;100394.69;5116956;28;1913;-43
2021/06/20 10:51:20;;;;;;;;;;;;;;;20.55;60.32;100392.44;5117381;28;767;-47
2021/06/20 10:53:45;;;;;;;;;;;;;;;20.55;61.12;100391.63;5116647;28;783;-64
2021/06/20 10:56:21;;;;;;;;;;;;;;;20.60;60.19;100388.78;5116942;28;763;-45
2021/06/20 10:58:50;;;;;;;;;;;;;;;20.51;58.75;100391.47;5117396;28;767;-65
2021/06/20 11:01:16;;;;;;;;;;;;;;;20.40;56.67;100388.09;5115314;28;935;-65
2021/06/20 11:03:42;;;;;;;;;;;;;;;19.97;60.04;100382.91;5096552;28;767;-44
2021/06/20 11:06:08;;;;;;;;;;;;;;;20.32;61.38;100380.53;5096436;28;752;-48
2021/06/20 11:08:33;;;;;;;;;;;;;;;20.24;62.43;100381.25;5096176;28;1980;-43
2021/06/20 11:11:05;;;;;;;;;;;;;;;20.55;62.10;100372.31;5096389;28;867;-47
2021/06/20 11:13:31;;;;;;;;;;;;;;;20.39;62.40;100378.16;5115763;28;1213;-64
2021/06/20 11:16:13;;;;;;;;;;;;;;;20.43;61.84;100379.19;5116221;28;1193;-44
2021/06/20 11:18:39;;;;;;;;;;;;;;;20.33;61.37;100385.75;5096312;28;839;-51
2021/06/20 11:21:04;;;;;;;;;;;;;;;20.37;61.03;100379.59;5096095;28;811;-44
2021/06/20 11:23:30;;;;;;;;;;;;;;;20.38;60.37;100381.25;5096086;28;760;-44
2021/06/20 11:26:00;;;;;;;;;;;;;;;20.37;59.70;100385.13;5096329;28;855;-65
2021/06/20 11:28:25;;;;;;;;;;;;;;;20.36;59.30;100381.56;5096168;28;1975;-65
2021/06/20 11:30:51;;;;;;;;;;;;;;;20.22;59.57;100380.75;5095882;28;868;-51
2021/06/20 11:33:26;;;;;;;;;;;;;;;19.83;63.03;100382.88;5095603;28;1349;-58
2021/06/20 11:35:52;;;;;;;;;;;;;;;19.95;64.86;100385.97;5116484;28;799;-43
2021/06/20 11:38:37;;;;;;;;;;;;;;;20.09;64.62;100397.00;5116329;28;763;-64
2021/06/20 11:41:08;;;;;;;;;;;;;;;20.42;61.56;100393.31;5116650;28;763;-46
2021/06/20 11:43:34;;;;;;;;;;;;;;;20.05;61.10;100382.19;5116635;28;751;-44
2021/06/20 11:45:59;;;;;;;;;;;;;;;20.04;61.70;100385.25;5115944;28;790;-45
2021/06/20 11:48:25;;;;;;;;;;;;;;;20.37;62.45;100385.97;5116505;28;1917;-45
2021/06/20 11:50:50;;;;;;;;;;;;;;;20.66;62.67;100382.84;5116917;28;783;-44
2021/06/20 11:53:17;;;;;;;;;;;;;;;20.64;62.79;100384.25;5116252;28;700;-44
2021/06/20 11:55:47;;;;;;;;;;;;;;;20.58;62.25;100377.19;5116327;28;780;-43
2021/06/20 11:58:14;;;;;;;;;;;;;;;20.52;61.22;100380.09;5116476;28;854;-67
2021/06/20 12:00:40;;;;;;;;;;;;;;;20.69;60.38;100381.41;5116014;28;795;-42
2021/06/20 12:03:06;;;;;;;;;;;;;;;20.48;59.91;100375.47;5100375;28;993;-43
2021/06/20 12:05:33;;;;;;;;;;;;;;;20.22;62.43;100372.47;5095796;28;780;-44
2021/06/20 12:07:59;;;;;;;;;;;;;;;20.45;62.93;100374.16;5077628;28;1906;-55
2021/06/20 12:10:24;;;;;;;;;;;;;;;20.52;62.37;100365.44;5095834;28;842;-62
2021/06/20 12:12:56;;;;;;;;;;;;;;;20.54;60.51;100373.44;5109250;28;1206;-62
2021/06/20 12:15:22;;;;;;;;;;;;;;;20.38;58.79;100367.44;5119506;28;817;-45
2021/06/20 12:17:48;;;;;;;;;;;;;;;20.38;59.00;100359.94;5119503;28;1121;-45
2021/06/20 12:20:13;;;;;;;;;;;;;;;20.22;61.76;100355.91;5101044;28;791;-44
2021/06/20 12:22:43;;;;;;;;;;;;;;;20.28;63.09;100351.91;5119653;28;764;-46
2021/06/20 12:25:09;;;;;;;;;;;;;;;20.27;63.26;100359.38;5119927;28;810;-47
2021/06/20 12:27:35;;;;;;;;;;;;;;;20.32;60.58;100358.44;5119766;28;807;-44
2021/06/20 12:30:15;;;;;;;;;;;;;;;20.22;57.97;100355.91;5119974;28;1972;-66
2021/06/20 12:32:40;;;;;;;;;;;;;;;20.25;59.24;100358.84;5101108;28;983;-45
2021/06/20 12:35:06;;;;;;;;;;;;;;;20.34;61.35;100370.81;5120365;28;778;-44
2021/06/20 12:37:41;;;;;;;;;;;;;;;20.32;62.66;100370.28;5119329;28;768;-43
2021/06/20 12:40:11;;;;;;;;;;;;;;;20.33;63.16;100374.69;5119982;28;775;-44
2021/06/20 12:42:47;;;;;;;;;;;;;;;20.38;62.41;100370.19;5119510;28;775;-46
2021/06/20 12:45:23;;;;;;;;;;;;;;;19.86;62.19;100359.38;5119308;28;735;-44
2021/06/20 12:47:48;;;;;;;;;;;;;;;19.69;62.83;100362.72;5118658;28;2017;-59
2021/06/20 12:50:14;;;;;;;;;;;;;;;19.67;63.23;100355.56;5119174;28;1431;-64